KRNT - Renton
Updated: Thu, 20-Jun-2019 4:53pm PDT

 Wind from SSW
Wind: SSW 6 mph , 9 km/h
Temperature: 68°F , 20°C
Dew Point: 43°F , 6°C
Humidity: 40%
Barometer: 30.06 inHg , 1017.9 hPa
Visibility: 10 miles , 16 km
Cloud details: 6000 ft
2019/06/20 23:53 KRNT 202353Z 21005KT 10SM OVC060 20/06 A3006 RMK AO2 SLP183 T02000056 10206 20144 $
KBFI - Seattle-Boeing
Updated: Thu, 20-Jun-2019 4:53pm PDT

 Wind from S
Wind: S 8 mph , 13 km/h
Temperature: 66°F , 19°C
Dew Point: 41°F , 5°C
Humidity: 40%
Barometer: 30.06 inHg , 1017.9 hPa
Visibility: 10 miles , 16 km
Cloud details: 6000 ft
2019/06/20 23:53 KBFI 202353Z 18007KT 10SM BKN060 19/05 A3006 RMK AO2 SLP178 T01940050 10206 20144 56015
 
KSEA - Seattle
Updated: Thu, 20-Jun-2019 4:53pm PDT

 Wind from WSW
Wind: WSW 10 mph , 17 km/h
Temperature: 68°F , 20°C
Dew Point: 43°F , 6°C
Humidity: 40%
Barometer: 30.07 inHg , 1018.3 hPa
Visibility: 10 miles , 16 km
Cloud details: 6500 ft
25000 ft
2019/06/20 23:53 KSEA 202353Z 24009KT 10SM BKN065 BKN250 20/06 A3007 RMK AO2 SLP187 T02000056 10211 20144 58014
KSMP - Stampede Pass
Updated: Thu, 20-Jun-2019 5:21pm PDT

 Wind from varies
Wind: varies 7 mph , 11 km/h
Temperature: 45°F , 7°C
Wind Chill: 41°F , 5°C
Dew Point: 39°F , 4°C
Humidity: 81%
Barometer: 30.06 inHg , 1017.9 hPa
Visibility: 10 miles , 16 km
Cloud details: 900 ft
1500 ft
2700 ft
2019/06/21 00:21 KSMP 210021Z AUTO VRB06KT 10SM SCT009 BKN015 OVC027 07/04 A3006 RMK AO2 T00670044